• Join FlightAware (Why Join?)
  • Login
  • US Flag 
07:01AM EDT


 

Airport Tracker/Info


-or-


 

Live Flight TrackerFlight Track Log ✈ N75AW ✈ 11-Nov-2013 ✈ KAPF - MYEH / ELH

Flight Track Log - Related Links

Times and Time Zones

All times are in EST time to prevent confusion due to time zone crossing. See the N75AW flight status page for this flight to view local times or setup timezone preferences in your user account.

Time Position Orientation Groundspeed Altitude Reporting Facility
EST Latitude Longitude Course Direction KTS MPH feet Rate Location/Type
07:20AM 26.0425 -81.6847 90° East 168 193 5,200  Level Miami Center
07:21AM 26.0078 -81.6578 145° Southeast 176 203 7,000 1,860 Climbing Miami Center
07:22AM 25.9650 -81.6283 148° Southeast 171 197 9,000 1,800 Climbing Miami Center
07:23AM 25.9172 -81.6194 171° South 170 196 10,600 1,680 Climbing Miami Center
07:24AM 26.1008 -81.3319 90° East  Level Estimated
07:24AM 25.8719 -81.5969 156° South 178 205 12,400  Level Miami Center
07:25AM 25.8400 -81.5564 131° Southeast 178 205 14,100 1,560 Climbing Miami Center
07:26AM 25.8078 -81.5161 132° Southeast 178 205 15,600 1,500 Climbing Miami Center
07:27AM 25.7778 -81.4733 128° Southeast 178 205 17,200 1,320 Climbing Miami Center
07:28AM 25.7689 -81.4244 101° East 173 199 18,300 1,200 Climbing Miami Center
07:29AM 25.7708 -81.3669 88° East 173 199 19,700 1,200 Climbing Miami Center
07:30AM 25.7706 -81.3069 90° East 183 211 20,800 1,080 Climbing Miami Center
07:31AM 25.7642 -81.2400 96° East 195 224 21,900 1,080 Climbing Miami Center
07:32AM 25.7639 -81.1775 90° East 200 230 23,000 600 Climbing Miami Center
07:33AM 25.7619 -81.1061 92° East 206 237 23,100  Climbing Miami Center
07:34AM 25.7539 -81.0228 96° East 239 275 23,100  Level Miami Center
07:35AM 25.7478 -80.9350 94° East 269 310 23,100  Level Miami Center
07:36AM 25.7442 -80.8447 93° East 289 333 23,100  Level Miami Center
07:37AM 25.7403 -80.7547 93° East 289 333 23,100  Level Miami Center
07:38AM 25.7364 -80.6625 93° East 294 338 23,100  Level Miami Center
07:39AM 25.7344 -80.5725 91° East 294 338 23,100  Level Miami Center
07:40AM 25.7286 -80.4756 94° East 300 345 23,100  Level Miami Center
07:41AM 25.7206 -80.3714 95° East 305 351 23,100  Level Miami Center
07:42AM 25.7144 -80.2792 94° East 305 351 23,100  Level Miami Center
07:43AM 25.7103 -80.1889 93° East 299 344 23,100  Level Miami Center
07:44AM 25.7061 -80.0967 93° East 293 337 23,100  Level Miami Center
07:45AM 25.6997 -80.0067 94° East 293 337 23,100  Level Miami Center
07:46AM 25.6933 -79.9142 94° East 293 337 23,100  Level Miami Center
07:47AM 25.6911 -79.8219 92° East 293 337 23,100  Level Miami Center
07:48AM 25.6822 -79.7317 96° East 293 337 23,100  Level Miami Center
07:49AM 25.6800 -79.6394 92° East 293 337 23,100  Level Miami Center
07:50AM 25.6753 -79.5472 93° East 293 337 23,100  Level Miami Center
07:51AM 25.6644 -79.4547 97° East 293 337 23,100  Level Miami Center
07:52AM 25.6639 -79.3647 90° East 293 337 23,100  Level Miami Center
07:53AM 25.6572 -79.2725 95° East 293 337 23,100  Level Miami Center
07:54AM 25.6522 -79.1825 94° East 293 337 23,100  Level Miami Center
07:55AM 25.6475 -79.0903 93° East 293 337 23,100  Level Miami Center
07:56AM 25.6406 -78.9978 95° East 293 337 23,100  Level Miami Center
07:57AM 25.6353 -78.9194 94° East 293 337 23,100  Level Miami Center
07:58AM 25.6303 -78.8294 94° East 288 331 23,100  Level Miami Center
07:59AM 25.6211 -78.7372 96° East 293 337 23,100  Level Miami Center
08:00AM 25.6161 -78.6425 93° East 293 337 23,100  Level Miami Center
08:01AM 25.6108 -78.5525 94° East 293 337 23,100  Level Miami Center
08:02AM 25.6033 -78.4603 95° East 287 330 23,100  Level Miami Center
08:03AM 25.5981 -78.3658 94° East 293 337 23,100 -540 Level Miami Center
08:04AM 25.5928 -78.2667 93° East 299 344 22,100 -1,200 Descending Miami Center
08:05AM 25.5856 -78.1653 94° East 320 368 20,800 -1,140 Descending Miami Center
08:06AM 25.5781 -78.0522 94° East 333 383 19,900 -1,200 Descending Miami Center
08:07AM 25.5725 -77.9483 93° East 328 377 18,500 -1,380 Descending Miami Center
08:08AM 25.5628 -77.8469 96° East 328 377 17,200 -1,380 Descending Miami Center
08:09AM 25.5550 -77.7481 95° East 328 377 15,800 -1,320 Descending Miami Center
08:10AM 25.5494 -77.6558 94° East 321 369 14,600 -1,380 Descending Miami Center
08:11AM 25.5414 -77.5658 96° East 304 350 13,100 -1,500 Descending Miami Center
08:12AM 25.5356 -77.4736 94° East 299 344 11,700 -1,320 Descending Miami Center
08:13AM 25.5297 -77.3953 95° East 294 338 10,500 -1,260 Descending Miami Center
08:14AM 25.5236 -77.3147 95° East 284 327 9,200 -1,200 Descending Miami Center
08:15AM 25.5156 -77.2386 97° East 264 304 8,100 -1,200 Descending Miami Center
08:16AM 25.5094 -77.1650 95° East 244 281 6,900 -1,200 Descending Miami Center